sensor_id;sensor_type;location;lat;lon;timestamp;P1;durP1;ratioP1;P2;durP2;ratioP2
17949;SDS011;9100;48.700;9.316;2022-11-20T00:00:12;2.7;;;2.6;;
17949;SDS011;9100;48.700;9.316;2022-11-20T00:01:12;2.7;;;2.6;;
17949;SDS011;9100;48.700;9.316;2022-11-20T00:02:12;2.7;;;2.6;;
17949;SDS011;9100;48.700;9.316;2022-11-20T00:03:12;2.7;;;2.6;;
17949;SDS011;9100;48.700;9.316;2022-11-20T00:04:12;2.7;;;2.5;;
17949;SDS011;9100;48.700;9.316;2022-11-20T00:04:17;2.7;;;2.5;;
17949;SDS011;9100;48.700;9.316;2022-11-20T00:05:12;2.7;;;2.5;;
17949;SDS011;9100;48.700;9.316;2022-11-20T00:06:13;2.7;;;2.5;;
17949;SDS011;9100;48.700;9.316;2022-11-20T00:07:12;2.7;;;2.5;;
17949;SDS011;9100;48.700;9.316;2022-11-20T00:08:12;2.7;;;2.5;;
17949;SDS011;9100;48.700;9.316;2022-11-20T00:09:12;3.3;;;3.1;;
17949;SDS011;9100;48.700;9.316;2022-11-20T00:09:17;3.3;;;3.1;;
17949;SDS011;9100;48.700;9.316;2022-11-20T00:10:12;3.3;;;3.1;;
17949;SDS011;9100;48.700;9.316;2022-11-20T00:11:12;3.3;;;3.1;;
17949;SDS011;9100;48.700;9.316;2022-11-20T00:12:12;3.3;;;3.1;;
17949;SDS011;9100;48.700;9.316;2022-11-20T00:13:12;3.3;;;3.1;;
17949;SDS011;9100;48.700;9.316;2022-11-20T00:14:12;3.7;;;3.4;;
17949;SDS011;9100;48.700;9.316;2022-11-20T00:14:17;3.7;;;3.4;;
17949;SDS011;9100;48.700;9.316;2022-11-20T00:15:12;3.7;;;3.4;;
17949;SDS011;9100;48.700;9.316;2022-11-20T00:16:13;3.7;;;3.4;;
17949;SDS011;9100;48.700;9.316;2022-11-20T00:17:12;3.7;;;3.4;;
17949;SDS011;9100;48.700;9.316;2022-11-20T00:18:12;3.7;;;3.4;;
17949;SDS011;9100;48.700;9.316;2022-11-20T00:19:12;3.1;;;2.9;;
17949;SDS011;9100;48.700;9.316;2022-11-20T00:19:17;3;;;2.8;;
17949;SDS011;9100;48.700;9.316;2022-11-20T00:20:12;3;;;2.8;;
17949;SDS011;9100;48.700;9.316;2022-11-20T00:21:13;3;;;2.8;;
17949;SDS011;9100;48.700;9.316;2022-11-20T00:22:12;3;;;2.8;;
17949;SDS011;9100;48.700;9.316;2022-11-20T00:23:12;3;;;2.8;;
17949;SDS011;9100;48.700;9.316;2022-11-20T00:24:12;3.5;;;3.2;;
17949;SDS011;9100;48.700;9.316;2022-11-20T00:24:17;3.6;;;3.3;;
17949;SDS011;9100;48.700;9.316;2022-11-20T00:25:12;3.6;;;3.3;;
17949;SDS011;9100;48.700;9.316;2022-11-20T00:26:13;3.6;;;3.3;;
17949;SDS011;9100;48.700;9.316;2022-11-20T00:27:12;3.6;;;3.3;;
17949;SDS011;9100;48.700;9.316;2022-11-20T00:28:12;3.6;;;3.3;;
17949;SDS011;9100;48.700;9.316;2022-11-20T00:29:12;5.3;;;3.9;;
17949;SDS011;9100;48.700;9.316;2022-11-20T00:29:17;5.2;;;3.9;;
17949;SDS011;9100;48.700;9.316;2022-11-20T00:30:12;5.2;;;3.9;;
17949;SDS011;9100;48.700;9.316;2022-11-20T00:31:13;5.2;;;3.9;;
17949;SDS011;9100;48.700;9.316;2022-11-20T00:32:12;5.2;;;3.9;;
17949;SDS011;9100;48.700;9.316;2022-11-20T00:33:12;5.2;;;3.9;;
17949;SDS011;9100;48.700;9.316;2022-11-20T00:34:12;3.5;;;3.2;;
17949;SDS011;9100;48.700;9.316;2022-11-20T00:34:17;3.5;;;3.2;;
17949;SDS011;9100;48.700;9.316;2022-11-20T00:35:12;3.5;;;3.2;;
17949;SDS011;9100;48.700;9.316;2022-11-20T00:36:13;3.5;;;3.2;;
17949;SDS011;9100;48.700;9.316;2022-11-20T00:37:12;3.5;;;3.2;;
17949;SDS011;9100;48.700;9.316;2022-11-20T00:38:12;3.5;;;3.2;;
17949;SDS011;9100;48.700;9.316;2022-11-20T00:39:12;2.8;;;2.7;;
17949;SDS011;9100;48.700;9.316;2022-11-20T00:39:17;2.7;;;2.6;;
17949;SDS011;9100;48.700;9.316;2022-11-20T00:40:12;2.7;;;2.6;;
17949;SDS011;9100;48.700;9.316;2022-11-20T00:41:13;2.7;;;2.6;;
17949;SDS011;9100;48.700;9.316;2022-11-20T00:42:12;2.7;;;2.6;;
17949;SDS011;9100;48.700;9.316;2022-11-20T00:43:12;2.7;;;2.6;;
17949;SDS011;9100;48.700;9.316;2022-11-20T00:44:12;4.9;;;2.9;;
17949;SDS011;9100;48.700;9.316;2022-11-20T00:44:17;4.8;;;2.9;;
17949;SDS011;9100;48.700;9.316;2022-11-20T00:45:12;4.8;;;2.9;;
17949;SDS011;9100;48.700;9.316;2022-11-20T00:46:13;4.8;;;2.9;;
17949;SDS011;9100;48.700;9.316;2022-11-20T00:47:12;4.8;;;2.9;;
17949;SDS011;9100;48.700;9.316;2022-11-20T00:48:12;4.8;;;2.9;;
17949;SDS011;9100;48.700;9.316;2022-11-20T00:49:12;3.2;;;2.9;;
17949;SDS011;9100;48.700;9.316;2022-11-20T00:49:17;3;;;2.8;;
17949;SDS011;9100;48.700;9.316;2022-11-20T00:50:12;3;;;2.8;;
17949;SDS011;9100;48.700;9.316;2022-11-20T00:51:13;3;;;2.8;;
17949;SDS011;9100;48.700;9.316;2022-11-20T00:52:12;3;;;2.8;;
17949;SDS011;9100;48.700;9.316;2022-11-20T00:53:12;3;;;2.8;;
17949;SDS011;9100;48.700;9.316;2022-11-20T00:54:12;2.5;;;2.4;;
17949;SDS011;9100;48.700;9.316;2022-11-20T00:54:17;2.7;;;2.5;;
17949;SDS011;9100;48.700;9.316;2022-11-20T00:55:12;2.7;;;2.5;;
17949;SDS011;9100;48.700;9.316;2022-11-20T00:56:13;2.7;;;2.5;;
17949;SDS011;9100;48.700;9.316;2022-11-20T00:57:12;2.7;;;2.5;;
17949;SDS011;9100;48.700;9.316;2022-11-20T00:58:12;2.7;;;2.5;;
17949;SDS011;9100;48.700;9.316;2022-11-20T00:59:12;2.4;;;2.3;;
17949;SDS011;9100;48.700;9.316;2022-11-20T00:59:17;2.6;;;2.4;;
17949;SDS011;9100;48.700;9.316;2022-11-20T01:00:12;2.6;;;2.4;;
17949;SDS011;9100;48.700;9.316;2022-11-20T01:01:13;2.6;;;2.4;;
17949;SDS011;9100;48.700;9.316;2022-11-20T01:02:12;2.6;;;2.4;;
17949;SDS011;9100;48.700;9.316;2022-11-20T01:03:12;2.6;;;2.4;;
17949;SDS011;9100;48.700;9.316;2022-11-20T01:04:12;1.7;;;1.7;;
17949;SDS011;9100;48.700;9.316;2022-11-20T01:04:18;1.7;;;1.7;;
17949;SDS011;9100;48.700;9.316;2022-11-20T01:05:12;1.7;;;1.7;;
17949;SDS011;9100;48.700;9.316;2022-11-20T01:06:13;1.7;;;1.7;;
17949;SDS011;9100;48.700;9.316;2022-11-20T01:07:12;1.7;;;1.7;;
17949;SDS011;9100;48.700;9.316;2022-11-20T01:08:12;1.7;;;1.7;;
17949;SDS011;9100;48.700;9.316;2022-11-20T01:09:13;2.7;;;2.5;;
17949;SDS011;9100;48.700;9.316;2022-11-20T01:09:17;2.5;;;2.4;;
17949;SDS011;9100;48.700;9.316;2022-11-20T01:10:12;2.5;;;2.4;;
17949;SDS011;9100;48.700;9.316;2022-11-20T01:11:13;2.5;;;2.4;;
17949;SDS011;9100;48.700;9.316;2022-11-20T01:12:12;2.5;;;2.4;;
17949;SDS011;9100;48.700;9.316;2022-11-20T01:13:12;2.5;;;2.4;;
17949;SDS011;9100;48.700;9.316;2022-11-20T01:14:13;2.4;;;2.3;;
17949;SDS011;9100;48.700;9.316;2022-11-20T01:14:18;2.4;;;2.3;;
17949;SDS011;9100;48.700;9.316;2022-11-20T01:15:12;2.4;;;2.3;;
17949;SDS011;9100;48.700;9.316;2022-11-20T01:16:13;2.4;;;2.3;;
17949;SDS011;9100;48.700;9.316;2022-11-20T01:17:12;2.4;;;2.3;;
17949;SDS011;9100;48.700;9.316;2022-11-20T01:18:12;2.4;;;2.3;;
17949;SDS011;9100;48.700;9.316;2022-11-20T01:19:14;2;;;1.9;;
17949;SDS011;9100;48.700;9.316;2022-11-20T01:19:17;2;;;1.9;;
17949;SDS011;9100;48.700;9.316;2022-11-20T01:20:12;2;;;1.9;;
17949;SDS011;9100;48.700;9.316;2022-11-20T01:21:13;2;;;1.9;;
17949;SDS011;9100;48.700;9.316;2022-11-20T01:22:12;2;;;1.9;;
17949;SDS011;9100;48.700;9.316;2022-11-20T01:23:12;2;;;1.9;;
17949;SDS011;9100;48.700;9.316;2022-11-20T01:24:13;2;;;1.8;;
17949;SDS011;9100;48.700;9.316;2022-11-20T01:24:17;2;;;1.8;;
17949;SDS011;9100;48.700;9.316;2022-11-20T01:25:12;2;;;1.8;;
17949;SDS011;9100;48.700;9.316;2022-11-20T01:26:13;2;;;1.8;;
17949;SDS011;9100;48.700;9.316;2022-11-20T01:27:12;2;;;1.8;;
17949;SDS011;9100;48.700;9.316;2022-11-20T01:28:12;2;;;1.8;;
17949;SDS011;9100;48.700;9.316;2022-11-20T01:29:13;1.9;;;1.8;;
17949;SDS011;9100;48.700;9.316;2022-11-20T01:29:17;1.9;;;1.8;;
17949;SDS011;9100;48.700;9.316;2022-11-20T01:30:12;1.9;;;1.8;;
17949;SDS011;9100;48.700;9.316;2022-11-20T01:31:13;1.9;;;1.8;;
17949;SDS011;9100;48.700;9.316;2022-11-20T01:32:12;1.9;;;1.8;;
17949;SDS011;9100;48.700;9.316;2022-11-20T01:33:12;1.9;;;1.8;;
17949;SDS011;9100;48.700;9.316;2022-11-20T01:34:13;2.2;;;2.1;;
17949;SDS011;9100;48.700;9.316;2022-11-20T01:34:17;2.2;;;2.1;;
17949;SDS011;9100;48.700;9.316;2022-11-20T01:35:12;2.2;;;2.1;;
17949;SDS011;9100;48.700;9.316;2022-11-20T01:36:13;2.2;;;2.1;;
17949;SDS011;9100;48.700;9.316;2022-11-20T01:37:12;2.2;;;2.1;;
17949;SDS011;9100;48.700;9.316;2022-11-20T01:38:12;2.2;;;2.1;;
17949;SDS011;9100;48.700;9.316;2022-11-20T01:39:13;2.2;;;2.1;;
17949;SDS011;9100;48.700;9.316;2022-11-20T01:39:18;2.3;;;2.2;;
17949;SDS011;9100;48.700;9.316;2022-11-20T01:40:12;2.3;;;2.2;;
17949;SDS011;9100;48.700;9.316;2022-11-20T01:41:13;2.3;;;2.2;;
17949;SDS011;9100;48.700;9.316;2022-11-20T01:42:12;2.3;;;2.2;;
17949;SDS011;9100;48.700;9.316;2022-11-20T01:43:13;2.3;;;2.2;;
17949;SDS011;9100;48.700;9.316;2022-11-20T01:44:13;2.3;;;2.2;;
17949;SDS011;9100;48.700;9.316;2022-11-20T01:44:17;2.3;;;2.2;;
17949;SDS011;9100;48.700;9.316;2022-11-20T01:46:13;2.3;;;2.2;;
17949;SDS011;9100;48.700;9.316;2022-11-20T01:46:18;2.3;;;2.2;;
17949;SDS011;9100;48.700;9.316;2022-11-20T01:47:12;2.3;;;2.2;;
17949;SDS011;9100;48.700;9.316;2022-11-20T01:48:12;2.3;;;2.2;;
17949;SDS011;9100;48.700;9.316;2022-11-20T01:49:14;1.8;;;1.8;;
17949;SDS011;9100;48.700;9.316;2022-11-20T01:49:18;1.8;;;1.8;;
17949;SDS011;9100;48.700;9.316;2022-11-20T01:50:14;1.8;;;1.8;;
17949;SDS011;9100;48.700;9.316;2022-11-20T01:51:12;1.8;;;1.8;;
17949;SDS011;9100;48.700;9.316;2022-11-20T01:52:13;1.8;;;1.8;;
17949;SDS011;9100;48.700;9.316;2022-11-20T01:53:12;1.8;;;1.8;;
17949;SDS011;9100;48.700;9.316;2022-11-20T01:54:13;2.6;;;2.4;;
17949;SDS011;9100;48.700;9.316;2022-11-20T01:54:18;2.4;;;2.3;;
17949;SDS011;9100;48.700;9.316;2022-11-20T01:55:13;2.4;;;2.3;;
17949;SDS011;9100;48.700;9.316;2022-11-20T01:56:12;2.4;;;2.3;;
17949;SDS011;9100;48.700;9.316;2022-11-20T01:57:12;2.4;;;2.3;;
17949;SDS011;9100;48.700;9.316;2022-11-20T01:58:12;2.4;;;2.3;;
17949;SDS011;9100;48.700;9.316;2022-11-20T01:59:13;2.2;;;2;;
17949;SDS011;9100;48.700;9.316;2022-11-20T01:59:17;2.2;;;2;;
17949;SDS011;9100;48.700;9.316;2022-11-20T02:00:14;2.2;;;2;;
17949;SDS011;9100;48.700;9.316;2022-11-20T02:01:12;2.2;;;2;;
17949;SDS011;9100;48.700;9.316;2022-11-20T02:02:12;2.2;;;2;;
17949;SDS011;9100;48.700;9.316;2022-11-20T02:03:13;2.2;;;2;;
17949;SDS011;9100;48.700;9.316;2022-11-20T02:04:12;2.6;;;2.4;;
17949;SDS011;9100;48.700;9.316;2022-11-20T02:04:17;2.6;;;2.4;;
17949;SDS011;9100;48.700;9.316;2022-11-20T02:05:14;2.6;;;2.4;;
17949;SDS011;9100;48.700;9.316;2022-11-20T02:06:14;2.6;;;2.4;;
17949;SDS011;9100;48.700;9.316;2022-11-20T02:07:12;2.6;;;2.4;;
17949;SDS011;9100;48.700;9.316;2022-11-20T02:08:12;2.6;;;2.4;;
17949;SDS011;9100;48.700;9.316;2022-11-20T02:09:13;2.3;;;2.2;;
17949;SDS011;9100;48.700;9.316;2022-11-20T02:09:17;2.2;;;2.1;;
17949;SDS011;9100;48.700;9.316;2022-11-20T02:10:12;2.2;;;2.1;;
17949;SDS011;9100;48.700;9.316;2022-11-20T02:11:12;2.2;;;2.1;;
17949;SDS011;9100;48.700;9.316;2022-11-20T02:12:12;2.2;;;2.1;;
17949;SDS011;9100;48.700;9.316;2022-11-20T02:13:12;2.2;;;2.1;;
17949;SDS011;9100;48.700;9.316;2022-11-20T02:14:12;2.2;;;2.1;;
17949;SDS011;9100;48.700;9.316;2022-11-20T02:14:17;2.2;;;2.1;;
17949;SDS011;9100;48.700;9.316;2022-11-20T02:15:12;2.2;;;2.1;;
17949;SDS011;9100;48.700;9.316;2022-11-20T02:16:14;2.2;;;2.1;;
17949;SDS011;9100;48.700;9.316;2022-11-20T02:17:12;2.2;;;2.1;;
17949;SDS011;9100;48.700;9.316;2022-11-20T02:18:13;2.2;;;2.1;;
17949;SDS011;9100;48.700;9.316;2022-11-20T02:19:15;2.3;;;2.2;;
17949;SDS011;9100;48.700;9.316;2022-11-20T02:19:20;2.3;;;2.2;;
17949;SDS011;9100;48.700;9.316;2022-11-20T02:20:12;2.3;;;2.2;;
17949;SDS011;9100;48.700;9.316;2022-11-20T02:21:14;2.3;;;2.2;;
17949;SDS011;9100;48.700;9.316;2022-11-20T02:22:13;2.3;;;2.2;;
17949;SDS011;9100;48.700;9.316;2022-11-20T02:23:14;2.3;;;2.2;;
17949;SDS011;9100;48.700;9.316;2022-11-20T02:24:13;3.6;;;2.5;;
17949;SDS011;9100;48.700;9.316;2022-11-20T02:24:17;3.4;;;2.5;;
17949;SDS011;9100;48.700;9.316;2022-11-20T02:25:12;3.4;;;2.5;;
17949;SDS011;9100;48.700;9.316;2022-11-20T02:26:12;3.4;;;2.5;;
17949;SDS011;9100;48.700;9.316;2022-11-20T02:27:13;3.4;;;2.5;;
17949;SDS011;9100;48.700;9.316;2022-11-20T02:28:12;3.4;;;2.5;;
17949;SDS011;9100;48.700;9.316;2022-11-20T02:29:13;2.4;;;2.1;;
17949;SDS011;9100;48.700;9.316;2022-11-20T02:29:19;2.3;;;2;;
17949;SDS011;9100;48.700;9.316;2022-11-20T02:30:12;2.3;;;2;;
17949;SDS011;9100;48.700;9.316;2022-11-20T02:31:12;2.3;;;2;;
17949;SDS011;9100;48.700;9.316;2022-11-20T02:32:17;2.3;;;2;;
17949;SDS011;9100;48.700;9.316;2022-11-20T02:33:12;2.3;;;2;;
17949;SDS011;9100;48.700;9.316;2022-11-20T02:34:12;2.3;;;2.1;;
17949;SDS011;9100;48.700;9.316;2022-11-20T02:34:17;2.2;;;2;;
17949;SDS011;9100;48.700;9.316;2022-11-20T02:35:40;2.2;;;2;;
17949;SDS011;9100;48.700;9.316;2022-11-20T02:36:14;2.2;;;2;;
17949;SDS011;9100;48.700;9.316;2022-11-20T02:37:12;2.2;;;2;;
17949;SDS011;9100;48.700;9.316;2022-11-20T02:38:12;2.2;;;2;;
17949;SDS011;9100;48.700;9.316;2022-11-20T02:39:12;2.4;;;2.3;;
17949;SDS011;9100;48.700;9.316;2022-11-20T02:39:17;2.3;;;2.2;;
17949;SDS011;9100;48.700;9.316;2022-11-20T02:40:12;2.3;;;2.2;;
17949;SDS011;9100;48.700;9.316;2022-11-20T02:41:12;2.3;;;2.2;;
17949;SDS011;9100;48.700;9.316;2022-11-20T02:42:12;2.3;;;2.2;;
17949;SDS011;9100;48.700;9.316;2022-11-20T02:43:12;2.3;;;2.2;;
17949;SDS011;9100;48.700;9.316;2022-11-20T02:44:12;2.7;;;2.6;;
17949;SDS011;9100;48.700;9.316;2022-11-20T02:44:17;2.7;;;2.6;;
17949;SDS011;9100;48.700;9.316;2022-11-20T02:45:12;2.7;;;2.6;;
17949;SDS011;9100;48.700;9.316;2022-11-20T02:46:12;2.7;;;2.6;;
17949;SDS011;9100;48.700;9.316;2022-11-20T02:47:12;2.7;;;2.6;;
17949;SDS011;9100;48.700;9.316;2022-11-20T02:48:12;2.7;;;2.6;;
17949;SDS011;9100;48.700;9.316;2022-11-20T02:49:12;2.6;;;2.5;;
17949;SDS011;9100;48.700;9.316;2022-11-20T02:49:17;2.6;;;2.5;;
17949;SDS011;9100;48.700;9.316;2022-11-20T02:50:12;2.6;;;2.5;;
17949;SDS011;9100;48.700;9.316;2022-11-20T02:51:12;2.6;;;2.5;;
17949;SDS011;9100;48.700;9.316;2022-11-20T02:52:12;2.6;;;2.5;;
17949;SDS011;9100;48.700;9.316;2022-11-20T02:53:12;2.6;;;2.5;;
17949;SDS011;9100;48.700;9.316;2022-11-20T02:54:12;3.3;;;2.9;;
17949;SDS011;9100;48.700;9.316;2022-11-20T02:54:17;3.1;;;2.8;;
17949;SDS011;9100;48.700;9.316;2022-11-20T02:55:12;3.1;;;2.8;;
17949;SDS011;9100;48.700;9.316;2022-11-20T02:56:12;3.1;;;2.8;;
17949;SDS011;9100;48.700;9.316;2022-11-20T02:57:12;3.1;;;2.8;;
17949;SDS011;9100;48.700;9.316;2022-11-20T02:58:12;3.1;;;2.8;;
17949;SDS011;9100;48.700;9.316;2022-11-20T02:59:12;2.6;;;2.5;;
17949;SDS011;9100;48.700;9.316;2022-11-20T02:59:17;2.7;;;2.6;;
17949;SDS011;9100;48.700;9.316;2022-11-20T03:00:12;2.7;;;2.6;;
17949;SDS011;9100;48.700;9.316;2022-11-20T03:01:12;2.7;;;2.6;;
17949;SDS011;9100;48.700;9.316;2022-11-20T03:02:12;2.7;;;2.6;;
17949;SDS011;9100;48.700;9.316;2022-11-20T03:03:12;2.7;;;2.6;;
17949;SDS011;9100;48.700;9.316;2022-11-20T03:04:12;3.3;;;2.6;;
17949;SDS011;9100;48.700;9.316;2022-11-20T03:04:17;3.4;;;2.6;;
17949;SDS011;9100;48.700;9.316;2022-11-20T03:05:12;3.4;;;2.6;;
17949;SDS011;9100;48.700;9.316;2022-11-20T03:06:12;3.4;;;2.6;;
17949;SDS011;9100;48.700;9.316;2022-11-20T03:07:12;3.4;;;2.6;;
17949;SDS011;9100;48.700;9.316;2022-11-20T03:08:12;3.4;;;2.6;;
17949;SDS011;9100;48.700;9.316;2022-11-20T03:09:12;5.2;;;2.4;;
17949;SDS011;9100;48.700;9.316;2022-11-20T03:09:17;5;;;2.4;;
17949;SDS011;9100;48.700;9.316;2022-11-20T03:10:12;5;;;2.4;;
17949;SDS011;9100;48.700;9.316;2022-11-20T03:11:12;5;;;2.4;;
17949;SDS011;9100;48.700;9.316;2022-11-20T03:12:12;5;;;2.4;;
17949;SDS011;9100;48.700;9.316;2022-11-20T03:13:12;5;;;2.4;;
17949;SDS011;9100;48.700;9.316;2022-11-20T03:14:12;2.5;;;2.4;;
17949;SDS011;9100;48.700;9.316;2022-11-20T03:14:17;2.4;;;2.3;;
17949;SDS011;9100;48.700;9.316;2022-11-20T03:15:12;2.4;;;2.3;;
17949;SDS011;9100;48.700;9.316;2022-11-20T03:16:13;2.4;;;2.3;;
17949;SDS011;9100;48.700;9.316;2022-11-20T03:17:12;2.4;;;2.3;;
17949;SDS011;9100;48.700;9.316;2022-11-20T03:18:12;2.4;;;2.3;;
17949;SDS011;9100;48.700;9.316;2022-11-20T03:19:12;2.8;;;2.6;;
17949;SDS011;9100;48.700;9.316;2022-11-20T03:19:17;2.8;;;2.6;;
17949;SDS011;9100;48.700;9.316;2022-11-20T03:20:12;2.8;;;2.6;;
17949;SDS011;9100;48.700;9.316;2022-11-20T03:21:12;2.8;;;2.6;;
17949;SDS011;9100;48.700;9.316;2022-11-20T03:22:12;2.8;;;2.6;;
17949;SDS011;9100;48.700;9.316;2022-11-20T03:23:12;2.8;;;2.6;;
17949;SDS011;9100;48.700;9.316;2022-11-20T03:24:12;2.7;;;2.6;;
17949;SDS011;9100;48.700;9.316;2022-11-20T03:24:17;2.7;;;2.6;;
17949;SDS011;9100;48.700;9.316;2022-11-20T03:25:12;2.7;;;2.6;;
17949;SDS011;9100;48.700;9.316;2022-11-20T03:26:13;2.7;;;2.6;;
17949;SDS011;9100;48.700;9.316;2022-11-20T03:27:12;2.7;;;2.6;;
17949;SDS011;9100;48.700;9.316;2022-11-20T03:28:12;2.7;;;2.6;;
17949;SDS011;9100;48.700;9.316;2022-11-20T03:29:12;2.4;;;2.3;;
17949;SDS011;9100;48.700;9.316;2022-11-20T03:29:17;2.3;;;2.2;;
17949;SDS011;9100;48.700;9.316;2022-11-20T03:31:13;2.3;;;2.2;;
17949;SDS011;9100;48.700;9.316;2022-11-20T03:32:12;2.3;;;2.2;;
17949;SDS011;9100;48.700;9.316;2022-11-20T03:33:12;2.3;;;2.2;;
17949;SDS011;9100;48.700;9.316;2022-11-20T03:34:12;2.3;;;2.2;;
17949;SDS011;9100;48.700;9.316;2022-11-20T03:34:17;2.3;;;2.2;;
17949;SDS011;9100;48.700;9.316;2022-11-20T03:35:12;2.3;;;2.2;;
17949;SDS011;9100;48.700;9.316;2022-11-20T03:36:13;2.3;;;2.2;;
17949;SDS011;9100;48.700;9.316;2022-11-20T03:37:12;2.3;;;2.2;;
17949;SDS011;9100;48.700;9.316;2022-11-20T03:38:12;2.3;;;2.2;;
17949;SDS011;9100;48.700;9.316;2022-11-20T03:39:12;2.9;;;2.7;;
17949;SDS011;9100;48.700;9.316;2022-11-20T03:39:17;2.9;;;2.7;;
17949;SDS011;9100;48.700;9.316;2022-11-20T03:40:12;2.9;;;2.7;;
17949;SDS011;9100;48.700;9.316;2022-11-20T03:41:13;2.9;;;2.7;;
17949;SDS011;9100;48.700;9.316;2022-11-20T03:42:12;2.9;;;2.7;;
17949;SDS011;9100;48.700;9.316;2022-11-20T03:43:12;2.9;;;2.7;;
17949;SDS011;9100;48.700;9.316;2022-11-20T03:44:12;2.4;;;2.3;;
17949;SDS011;9100;48.700;9.316;2022-11-20T03:44:17;2.4;;;2.3;;
17949;SDS011;9100;48.700;9.316;2022-11-20T03:45:12;2.4;;;2.3;;
17949;SDS011;9100;48.700;9.316;2022-11-20T03:46:12;2.4;;;2.3;;
17949;SDS011;9100;48.700;9.316;2022-11-20T03:47:12;2.4;;;2.3;;
17949;SDS011;9100;48.700;9.316;2022-11-20T03:48:12;2.4;;;2.3;;
17949;SDS011;9100;48.700;9.316;2022-11-20T03:49:12;2.3;;;2.2;;
17949;SDS011;9100;48.700;9.316;2022-11-20T03:49:17;2.4;;;2.3;;
17949;SDS011;9100;48.700;9.316;2022-11-20T03:50:13;2.4;;;2.3;;
17949;SDS011;9100;48.700;9.316;2022-11-20T03:51:13;2.4;;;2.3;;
17949;SDS011;9100;48.700;9.316;2022-11-20T03:52:12;2.4;;;2.3;;
17949;SDS011;9100;48.700;9.316;2022-11-20T03:53:12;2.4;;;2.3;;
17949;SDS011;9100;48.700;9.316;2022-11-20T03:54:12;2.5;;;2.2;;
17949;SDS011;9100;48.700;9.316;2022-11-20T03:54:17;2.5;;;2.3;;
17949;SDS011;9100;48.700;9.316;2022-11-20T03:55:12;2.5;;;2.3;;
17949;SDS011;9100;48.700;9.316;2022-11-20T03:56:13;2.5;;;2.3;;
17949;SDS011;9100;48.700;9.316;2022-11-20T03:57:12;2.5;;;2.3;;
17949;SDS011;9100;48.700;9.316;2022-11-20T03:58:12;2.5;;;2.3;;
17949;SDS011;9100;48.700;9.316;2022-11-20T03:59:13;2.4;;;2.3;;
17949;SDS011;9100;48.700;9.316;2022-11-20T03:59:17;2.4;;;2.3;;
17949;SDS011;9100;48.700;9.316;2022-11-20T04:00:13;2.4;;;2.3;;
17949;SDS011;9100;48.700;9.316;2022-11-20T04:01:13;2.4;;;2.3;;
17949;SDS011;9100;48.700;9.316;2022-11-20T04:02:12;2.4;;;2.3;;
17949;SDS011;9100;48.700;9.316;2022-11-20T04:03:12;2.4;;;2.3;;
17949;SDS011;9100;48.700;9.316;2022-11-20T04:04:12;1.9;;;1.8;;
17949;SDS011;9100;48.700;9.316;2022-11-20T04:04:17;3.2;;;1.8;;
17949;SDS011;9100;48.700;9.316;2022-11-20T04:05:12;3.2;;;1.8;;
17949;SDS011;9100;48.700;9.316;2022-11-20T04:06:13;3.2;;;1.8;;
17949;SDS011;9100;48.700;9.316;2022-11-20T04:07:12;3.2;;;1.8;;
17949;SDS011;9100;48.700;9.316;2022-11-20T04:08:12;3.2;;;1.8;;
17949;SDS011;9100;48.700;9.316;2022-11-20T04:09:12;1.9;;;1.8;;
17949;SDS011;9100;48.700;9.316;2022-11-20T04:09:17;1.9;;;1.8;;
17949;SDS011;9100;48.700;9.316;2022-11-20T04:10:12;1.9;;;1.8;;
17949;SDS011;9100;48.700;9.316;2022-11-20T04:11:13;1.9;;;1.8;;
17949;SDS011;9100;48.700;9.316;2022-11-20T04:12:12;1.9;;;1.8;;
17949;SDS011;9100;48.700;9.316;2022-11-20T04:13:12;1.9;;;1.8;;
17949;SDS011;9100;48.700;9.316;2022-11-20T04:14:13;2.1;;;2;;
17949;SDS011;9100;48.700;9.316;2022-11-20T04:14:17;2;;;1.9;;
17949;SDS011;9100;48.700;9.316;2022-11-20T04:15:12;2;;;1.9;;
17949;SDS011;9100;48.700;9.316;2022-11-20T04:16:12;2;;;1.9;;
17949;SDS011;9100;48.700;9.316;2022-11-20T04:17:12;2;;;1.9;;
17949;SDS011;9100;48.700;9.316;2022-11-20T04:18:12;2;;;1.9;;
17949;SDS011;9100;48.700;9.316;2022-11-20T04:19:13;2.2;;;2.1;;
17949;SDS011;9100;48.700;9.316;2022-11-20T04:19:17;2.4;;;2.2;;
17949;SDS011;9100;48.700;9.316;2022-11-20T04:20:12;2.4;;;2.2;;
17949;SDS011;9100;48.700;9.316;2022-11-20T04:21:12;2.4;;;2.2;;
17949;SDS011;9100;48.700;9.316;2022-11-20T04:22:12;2.4;;;2.2;;
17949;SDS011;9100;48.700;9.316;2022-11-20T04:23:12;2.4;;;2.2;;
17949;SDS011;9100;48.700;9.316;2022-11-20T04:24:12;1.9;;;1.8;;
17949;SDS011;9100;48.700;9.316;2022-11-20T04:24:17;1.9;;;1.8;;
17949;SDS011;9100;48.700;9.316;2022-11-20T04:25:12;1.9;;;1.8;;
17949;SDS011;9100;48.700;9.316;2022-11-20T04:26:12;1.9;;;1.8;;
17949;SDS011;9100;48.700;9.316;2022-11-20T04:27:12;1.9;;;1.8;;
17949;SDS011;9100;48.700;9.316;2022-11-20T04:28:12;1.9;;;1.8;;
17949;SDS011;9100;48.700;9.316;2022-11-20T04:29:12;3.5;;;1.9;;
17949;SDS011;9100;48.700;9.316;2022-11-20T04:29:17;3.3;;;1.8;;
17949;SDS011;9100;48.700;9.316;2022-11-20T04:30:12;3.3;;;1.8;;
17949;SDS011;9100;48.700;9.316;2022-11-20T04:31:13;3.3;;;1.8;;
17949;SDS011;9100;48.700;9.316;2022-11-20T04:32:12;3.3;;;1.8;;
17949;SDS011;9100;48.700;9.316;2022-11-20T04:33:12;3.3;;;1.8;;
17949;SDS011;9100;48.700;9.316;2022-11-20T04:34:12;2;;;1.8;;
17949;SDS011;9100;48.700;9.316;2022-11-20T04:34:17;2;;;1.8;;
17949;SDS011;9100;48.700;9.316;2022-11-20T04:35:12;2;;;1.8;;
17949;SDS011;9100;48.700;9.316;2022-11-20T04:36:13;2;;;1.8;;
17949;SDS011;9100;48.700;9.316;2022-11-20T04:37:12;2;;;1.8;;
17949;SDS011;9100;48.700;9.316;2022-11-20T04:38:12;2;;;1.8;;
17949;SDS011;9100;48.700;9.316;2022-11-20T04:39:13;2.9;;;2.6;;
17949;SDS011;9100;48.700;9.316;2022-11-20T04:39:17;2.8;;;2.5;;
17949;SDS011;9100;48.700;9.316;2022-11-20T04:40:12;2.8;;;2.5;;
17949;SDS011;9100;48.700;9.316;2022-11-20T04:41:14;2.8;;;2.5;;
17949;SDS011;9100;48.700;9.316;2022-11-20T04:42:12;2.8;;;2.5;;
17949;SDS011;9100;48.700;9.316;2022-11-20T04:43:12;2.8;;;2.5;;
17949;SDS011;9100;48.700;9.316;2022-11-20T04:44:12;2;;;1.9;;
17949;SDS011;9100;48.700;9.316;2022-11-20T04:44:17;1.9;;;1.8;;
17949;SDS011;9100;48.700;9.316;2022-11-20T04:45:12;1.9;;;1.8;;
17949;SDS011;9100;48.700;9.316;2022-11-20T04:46:12;1.9;;;1.8;;
17949;SDS011;9100;48.700;9.316;2022-11-20T04:47:12;1.9;;;1.8;;
17949;SDS011;9100;48.700;9.316;2022-11-20T04:48:12;1.9;;;1.8;;
17949;SDS011;9100;48.700;9.316;2022-11-20T04:49:13;3.2;;;1.9;;
17949;SDS011;9100;48.700;9.316;2022-11-20T04:49:17;3;;;1.9;;
17949;SDS011;9100;48.700;9.316;2022-11-20T04:50:12;3;;;1.9;;
17949;SDS011;9100;48.700;9.316;2022-11-20T04:51:12;3;;;1.9;;
17949;SDS011;9100;48.700;9.316;2022-11-20T04:52:12;3;;;1.9;;
17949;SDS011;9100;48.700;9.316;2022-11-20T04:53:13;3;;;1.9;;
17949;SDS011;9100;48.700;9.316;2022-11-20T04:54:12;2;;;1.9;;
17949;SDS011;9100;48.700;9.316;2022-11-20T04:54:17;2.1;;;1.9;;
17949;SDS011;9100;48.700;9.316;2022-11-20T04:55:12;2.1;;;1.9;;
17949;SDS011;9100;48.700;9.316;2022-11-20T04:56:13;2.1;;;1.9;;
17949;SDS011;9100;48.700;9.316;2022-11-20T04:57:13;2.1;;;1.9;;
17949;SDS011;9100;48.700;9.316;2022-11-20T04:58:13;2.1;;;1.9;;
17949;SDS011;9100;48.700;9.316;2022-11-20T04:59:12;1.6;;;1.5;;
17949;SDS011;9100;48.700;9.316;2022-11-20T04:59:17;1.6;;;1.5;;
17949;SDS011;9100;48.700;9.316;2022-11-20T05:00:13;1.6;;;1.5;;
17949;SDS011;9100;48.700;9.316;2022-11-20T05:01:13;1.6;;;1.5;;
17949;SDS011;9100;48.700;9.316;2022-11-20T05:02:12;1.6;;;1.5;;
17949;SDS011;9100;48.700;9.316;2022-11-20T05:03:12;1.6;;;1.5;;
17949;SDS011;9100;48.700;9.316;2022-11-20T05:04:12;2.5;;;2.3;;
17949;SDS011;9100;48.700;9.316;2022-11-20T05:04:17;2.4;;;2.3;;
17949;SDS011;9100;48.700;9.316;2022-11-20T05:05:12;2.4;;;2.3;;
17949;SDS011;9100;48.700;9.316;2022-11-20T05:06:13;2.4;;;2.3;;
17949;SDS011;9100;48.700;9.316;2022-11-20T05:07:12;2.4;;;2.3;;
17949;SDS011;9100;48.700;9.316;2022-11-20T05:08:12;2.4;;;2.3;;
17949;SDS011;9100;48.700;9.316;2022-11-20T05:09:12;2;;;1.9;;
17949;SDS011;9100;48.700;9.316;2022-11-20T05:09:17;1.9;;;1.8;;
17949;SDS011;9100;48.700;9.316;2022-11-20T05:10:12;1.9;;;1.8;;
17949;SDS011;9100;48.700;9.316;2022-11-20T05:11:13;1.9;;;1.8;;
17949;SDS011;9100;48.700;9.316;2022-11-20T05:12:12;1.9;;;1.8;;
17949;SDS011;9100;48.700;9.316;2022-11-20T05:13:12;1.9;;;1.8;;
17949;SDS011;9100;48.700;9.316;2022-11-20T05:14:12;1.9;;;1.8;;
17949;SDS011;9100;48.700;9.316;2022-11-20T05:14:17;1.9;;;1.8;;
17949;SDS011;9100;48.700;9.316;2022-11-20T05:15:12;1.9;;;1.8;;
17949;SDS011;9100;48.700;9.316;2022-11-20T05:16:13;1.9;;;1.8;;
17949;SDS011;9100;48.700;9.316;2022-11-20T05:17:12;1.9;;;1.8;;
17949;SDS011;9100;48.700;9.316;2022-11-20T05:18:12;1.9;;;1.8;;